Roxane — 9H9917 — position and weather

sailwx.info

Track history (hours):
 
Tides and Currents Weather Stations Pressure Air Temp Water Temp Dewpoint Dewpoint Depression Visibility Wind Speed Wind Dir Waves Ship Positions

Roxane

Last reported at 2016-Jun-25 06:33 UTC. Time now 2016-Jun-25 07:04 UTC.
Position N 40°41' E 014°12'.

Length 46 m.

Type: Sailing vessel. MMSI: 248548000.

Date/timePositionNaut miles runAvg speedWind from/ knotsBaromVisibWave heightAir tempDewpointWater temp
2016-Jun-25 06:33N 40°41' E 014°12'  
2016-Jun-18 16:06N 38°04' E 013°55'5 9.3
2016-Jun-18 15:32N 38°05' E 013°49'9 9.4
2016-Jun-18 14:33N 38°07' E 013°37'9 9.0
2016-Jun-18 13:33N 38°08' E 013°26'3 2.5
2016-Jun-18 12:30N 38°09' E 013°23'0 0.0
2016-Jun-18 11:33N 38°09' E 013°23'0 0.0
2016-Jun-18 10:33N 38°09' E 013°23'0 0.0
2016-Jun-18 09:33N 38°09' E 013°23'0 0.0
2016-Jun-18 08:33N 38°09' E 013°23'0 0.0
2016-Jun-18 07:33N 38°09' E 013°23'0 0.0
2016-Jun-18 06:33N 38°09' E 013°23'0 0.0
2016-Jun-18 05:33N 38°09' E 013°23'0 0.0
2016-Jun-18 04:30N 38°09' E 013°23'0 0.0
2016-Jun-18 03:33N 38°09' E 013°23'0 0.0
2016-Jun-18 02:33N 38°09' E 013°23'0 0.0
2016-Jun-18 01:33N 38°09' E 013°23'0 0.1
2016-Jun-18 00:33N 38°09' E 013°23'0 0.0
2016-Jun-17 23:33N 38°09' E 013°23'0 0.0
2016-Jun-17 22:33N 38°09' E 013°23'0 0.0
2016-Jun-17 21:33N 38°09' E 013°23'0 0.0
2016-Jun-17 20:30N 38°09' E 013°23'0 0.0
2016-Jun-17 19:33N 38°09' E 013°23'0 0.3
2016-Jun-17 18:34N 38°09' E 013°22'0 0.1
2016-Jun-17 17:31N 38°09' E 013°22'0 0.0
2016-Jun-17 16:31N 38°09' E 013°22'0 0.0
2016-Jun-17 15:31N 38°09' E 013°22'0 0.0
2016-Jun-17 14:31N 38°09' E 013°22'0 0.0
2016-Jun-17 13:28N 38°09' E 013°22'0 0.0
2016-Jun-17 12:31N 38°09' E 013°22'0 0.0
2016-Jun-17 11:31N 38°09' E 013°22'0 0.0
2016-Jun-17 10:28N 38°09' E 013°22'0 0.0
2016-Jun-17 09:31N 38°09' E 013°22'0 0.0
2016-Jun-17 08:31N 38°09' E 013°22'0 0.0
2016-Jun-17 07:32N 38°09' E 013°22'0 0.0
2016-Jun-17 06:29N 38°09' E 013°22'0 0.0
2016-Jun-17 05:32N 38°09' E 013°22'0 0.0
2016-Jun-17 04:32N 38°09' E 013°22'0 0.0
2016-Jun-17 03:32N 38°09' E 013°22'0 0.0
2016-Jun-17 02:32N 38°09' E 013°22'0 0.0
2016-Jun-17 01:32N 38°09' E 013°22'0 0.0
2016-Jun-17 00:32N 38°09' E 013°22'0 0.0
2016-Jun-16 23:32N 38°09' E 013°22'0 0.0
2016-Jun-16 22:29N 38°09' E 013°22'0 0.0
2016-Jun-16 21:32N 38°09' E 013°22'0 0.0
2016-Jun-16 20:32N 38°09' E 013°22'0 0.0
2016-Jun-16 19:32N 38°09' E 013°22'0 0.0
2016-Jun-16 18:32N 38°09' E 013°22'0 0.0
2016-Jun-16 17:32N 38°09' E 013°22'0 0.0
2016-Jun-16 16:32N 38°09' E 013°22'0 0.0
2016-Jun-16 14:26N 38°09' E 013°22'0 0.0
2016-Jun-16 13:26N 38°09' E 013°22'0 0.0
2016-Jun-16 12:14N 38°09' E 013°22'0 0.0
2016-Jun-16 07:26N 38°09' E 013°22'0 0.0
2016-Jun-16 04:26N 38°09' E 013°22'0 0.0
2016-Jun-16 03:26N 38°09' E 013°22'0 0.0
2016-Jun-16 02:26N 38°09' E 013°22'0 0.0
2016-Jun-16 01:29N 38°09' E 013°22'0 0.0
2016-Jun-16 00:26N 38°09' E 013°22'0 0.0
2016-Jun-15 23:29N 38°09' E 013°22'0 0.0
2016-Jun-15 22:32N 38°09' E 013°22'0 0.0
2016-Jun-15 16:26N 38°09' E 013°22'0 0.0
2016-Jun-15 15:26N 38°09' E 013°22'0 0.0
2016-Jun-15 14:26N 38°09' E 013°22'0 0.0
2016-Jun-15 13:29N 38°09' E 013°22'0 0.0
2016-Jun-15 12:29N 38°09' E 013°22'0 0.0
2016-Jun-15 11:17N 38°09' E 013°22'0 0.0
2016-Jun-15 10:17N 38°09' E 013°22'0 0.0
2016-Jun-15 09:29N 38°09' E 013°22'  
Track history (hours):
 
Tides and Currents Weather Stations Pressure Air Temp Water Temp Dewpoint Dewpoint Depression Visibility Wind Speed Wind Dir Waves Ship Positions

Roxane

Last reported at 2016-Jun-25 06:33 UTC. Time now 2016-Jun-25 07:04 UTC.
Position N 40°41' E 014°12'.

Length 46 m.

Type: Sailing vessel. MMSI: 248548000.

Date/timePositionNaut miles runAvg speedWind from/ knotsBaromVisibWave heightAir tempDewpointWater temp
2016-Jun-25 06:33N 40°41' E 014°12'  
2016-Jun-18 16:06N 38°04' E 013°55'5 9.3
2016-Jun-18 15:32N 38°05' E 013°49'9 9.4
2016-Jun-18 14:33N 38°07' E 013°37'9 9.0
2016-Jun-18 13:33N 38°08' E 013°26'3 2.5
2016-Jun-18 12:30N 38°09' E 013°23'0 0.0
2016-Jun-18 11:33N 38°09' E 013°23'0 0.0
2016-Jun-18 10:33N 38°09' E 013°23'0 0.0
2016-Jun-18 09:33N 38°09' E 013°23'0 0.0
2016-Jun-18 08:33N 38°09' E 013°23'0 0.0
2016-Jun-18 07:33N 38°09' E 013°23'0 0.0
2016-Jun-18 06:33N 38°09' E 013°23'0 0.0
2016-Jun-18 05:33N 38°09' E 013°23'0 0.0
2016-Jun-18 04:30N 38°09' E 013°23'0 0.0
2016-Jun-18 03:33N 38°09' E 013°23'0 0.0
2016-Jun-18 02:33N 38°09' E 013°23'0 0.0
2016-Jun-18 01:33N 38°09' E 013°23'0 0.1
2016-Jun-18 00:33N 38°09' E 013°23'0 0.0
2016-Jun-17 23:33N 38°09' E 013°23'0 0.0
2016-Jun-17 22:33N 38°09' E 013°23'0 0.0
2016-Jun-17 21:33N 38°09' E 013°23'0 0.0
2016-Jun-17 20:30N 38°09' E 013°23'0 0.0
2016-Jun-17 19:33N 38°09' E 013°23'0 0.3
2016-Jun-17 18:34N 38°09' E 013°22'0 0.1
2016-Jun-17 17:31N 38°09' E 013°22'0 0.0
2016-Jun-17 16:31N 38°09' E 013°22'0 0.0
2016-Jun-17 15:31N 38°09' E 013°22'0 0.0
2016-Jun-17 14:31N 38°09' E 013°22'0 0.0
2016-Jun-17 13:28N 38°09' E 013°22'0 0.0
2016-Jun-17 12:31N 38°09' E 013°22'0 0.0
2016-Jun-17 11:31N 38°09' E 013°22'0 0.0
2016-Jun-17 10:28N 38°09' E 013°22'0 0.0
2016-Jun-17 09:31N 38°09' E 013°22'0 0.0
2016-Jun-17 08:31N 38°09' E 013°22'0 0.0
2016-Jun-17 07:32N 38°09' E 013°22'0 0.0
2016-Jun-17 06:29N 38°09' E 013°22'0 0.0
2016-Jun-17 05:32N 38°09' E 013°22'0 0.0
2016-Jun-17 04:32N 38°09' E 013°22'0 0.0
2016-Jun-17 03:32N 38°09' E 013°22'0 0.0
2016-Jun-17 02:32N 38°09' E 013°22'0 0.0
2016-Jun-17 01:32N 38°09' E 013°22'0 0.0
2016-Jun-17 00:32N 38°09' E 013°22'0 0.0
2016-Jun-16 23:32N 38°09' E 013°22'0 0.0
2016-Jun-16 22:29N 38°09' E 013°22'0 0.0
2016-Jun-16 21:32N 38°09' E 013°22'0 0.0
2016-Jun-16 20:32N 38°09' E 013°22'0 0.0
2016-Jun-16 19:32N 38°09' E 013°22'0 0.0
2016-Jun-16 18:32N 38°09' E 013°22'0 0.0
2016-Jun-16 17:32N 38°09' E 013°22'0 0.0
2016-Jun-16 16:32N 38°09' E 013°22'0 0.0
2016-Jun-16 14:26N 38°09' E 013°22'0 0.0
2016-Jun-16 13:26N 38°09' E 013°22'0 0.0
2016-Jun-16 12:14N 38°09' E 013°22'0 0.0
2016-Jun-16 07:26N 38°09' E 013°22'0 0.0
2016-Jun-16 04:26N 38°09' E 013°22'0 0.0
2016-Jun-16 03:26N 38°09' E 013°22'0 0.0
2016-Jun-16 02:26N 38°09' E 013°22'0 0.0
2016-Jun-16 01:29N 38°09' E 013°22'0 0.0
2016-Jun-16 00:26N 38°09' E 013°22'0 0.0
2016-Jun-15 23:29N 38°09' E 013°22'0 0.0
2016-Jun-15 22:32N 38°09' E 013°22'0 0.0
2016-Jun-15 16:26N 38°09' E 013°22'0 0.0
2016-Jun-15 15:26N 38°09' E 013°22'0 0.0
2016-Jun-15 14:26N 38°09' E 013°22'0 0.0
2016-Jun-15 13:29N 38°09' E 013°22'0 0.0
2016-Jun-15 12:29N 38°09' E 013°22'0 0.0
2016-Jun-15 11:17N 38°09' E 013°22'0 0.0
2016-Jun-15 10:17N 38°09' E 013°22'0 0.0
2016-Jun-15 09:29N 38°09' E 013°22'  

Dump ship's entire track history